Time;durP1;ratioP1;P1;durP2;ratioP2;P2;SDS_P1;SDS_P2;PMS_P1;PMS_P2;Temp;Humidity;BMP_temperature;BMP_pressure;BME280_temperature;BME280_humidity;BME280_pressure;Samples;Min_cycle;Max_cycle;Signal;HPM_P1;HPM_P2
2021/01/28 00:02:14;;;;;;;5.37;4.97;;;5.30;99.90;;;;;;10352342;28;20223;-79
2021/01/28 00:07:17;;;;;;;4.57;4.27;;;5.30;99.90;;;;;;10356989;28;20622;-79
2021/01/28 00:12:18;;;;;;;5.37;4.97;;;5.30;99.90;;;;;;10352020;28;20750;-79
2021/01/28 00:17:20;;;;;;;5.97;5.47;;;5.30;99.90;;;;;;10351803;28;20187;-79
2021/01/28 00:22:22;;;;;;;6.30;5.70;;;5.20;99.90;;;;;;10353349;28;20210;-79
2021/01/28 00:27:24;;;;;;;6.37;5.90;;;5.30;99.90;;;;;;10336730;28;20202;-79
2021/01/28 00:32:26;;;;;;;5.70;5.30;;;5.30;99.90;;;;;;10351876;28;20225;-79
2021/01/28 00:37:28;;;;;;;5.57;5.07;;;5.30;99.90;;;;;;10336097;28;20201;-79
2021/01/28 00:42:30;;;;;;;5.93;5.40;;;5.30;99.90;;;;;;10350168;28;20233;-79
2021/01/28 00:47:31;;;;;;;5.60;5.20;;;5.30;99.90;;;;;;10352975;28;20274;-79
2021/01/28 00:52:34;;;;;;;4.43;4.13;;;5.30;99.90;;;;;;10351280;28;20233;-79
2021/01/28 00:57:36;;;;;;;4.43;4.13;;;5.30;99.90;;;;;;10334516;28;20245;-79
2021/01/28 01:02:37;;;;;;;5.10;4.70;;;5.30;99.90;;;;;;10351322;28;20230;-79
2021/01/28 01:07:40;;;;;;;4.13;3.83;;;5.40;99.90;;;;;;10351001;28;20195;-80
2021/01/28 01:12:42;;;;;;;4.60;4.20;;;5.50;99.90;;;;;;10350360;28;20217;-79
2021/01/28 01:17:44;;;;;;;4.20;3.90;;;5.40;99.90;;;;;;10351779;28;20199;-79
2021/01/28 01:22:48;;;;;;;4.53;4.23;;;5.50;99.90;;;;;;10334764;28;20571;-79
2021/01/28 01:27:50;;;;;;;4.30;4.00;;;5.50;99.90;;;;;;10369093;28;20257;-79
2021/01/28 01:33:21;;;;;;;4.10;3.80;;;5.50;99.90;;;;;;10315608;28;20285;-79
2021/01/28 01:38:45;;;;;;;4.87;4.47;;;5.50;99.90;;;;;;10315360;28;20290;-79
2021/01/28 01:43:58;;;;;;;3.63;3.43;;;5.50;99.90;;;;;;10330098;28;20227;-79
2021/01/28 01:49:05;;;;;;;3.47;3.27;;;5.50;99.90;;;;;;10330224;28;20191;-79
2021/01/28 01:54:10;;;;;;;3.80;3.50;;;5.50;99.90;;;;;;10329754;28;20222;-79
2021/01/28 01:59:22;;;;;;;3.20;3.00;;;5.50;99.90;;;;;;10311508;28;20234;-79
2021/01/28 02:04:44;;;;;;;3.60;3.40;;;5.50;99.90;;;;;;10327468;28;20225;-79
2021/01/28 02:10:11;;;;;;;3.50;3.20;;;5.50;99.90;;;;;;10323649;28;20203;-79
2021/01/28 02:15:32;;;;;;;3.70;3.50;;;5.60;99.90;;;;;;10328678;28;20325;-79
2021/01/28 02:21:00;;;;;;;3.87;3.53;;;5.70;99.90;;;;;;10330838;28;20676;-79
2021/01/28 02:26:07;;;;;;;4.87;4.27;;;5.60;99.90;;;;;;10329087;28;20219;-79
2021/01/28 02:31:09;;;;;;;3.70;3.40;;;5.60;99.90;;;;;;10337052;28;20211;-79
2021/01/28 02:36:12;;;;;;;3.73;3.53;;;5.60;99.90;;;;;;10337600;28;20679;-79
2021/01/28 02:41:14;;;;;;;3.03;2.73;;;5.60;99.90;;;;;;10321969;28;20254;-79
2021/01/28 02:46:36;;;;;;;3.53;3.33;;;5.60;99.90;;;;;;10321548;28;20271;-79
2021/01/28 02:51:54;;;;;;;3.40;3.20;;;5.60;99.90;;;;;;10338283;28;20213;-79
2021/01/28 02:57:05;;;;;;;2.67;2.57;;;5.70;99.90;;;;;;10338578;28;20579;-79
2021/01/28 03:02:10;;;;;;;3.60;3.40;;;5.70;99.90;;;;;;10338086;28;20226;-79
2021/01/28 03:07:14;;;;;;;3.10;2.90;;;5.70;99.90;;;;;;10337004;28;20253;-79
2021/01/28 03:12:17;;;;;;;2.60;2.50;;;5.70;99.90;;;;;;10337155;28;20221;-79
2021/01/28 03:17:38;;;;;;;2.93;2.63;;;5.70;99.90;;;;;;10306553;28;20196;-79
2021/01/28 03:22:42;;;;;;;3.07;2.87;;;5.70;99.90;;;;;;10335555;28;20762;-79
2021/01/28 03:27:59;;;;;;;2.93;2.73;;;5.80;99.90;;;;;;10317714;28;20206;-79
2021/01/28 03:33:05;;;;;;;2.93;2.73;;;5.80;99.90;;;;;;10309706;28;20313;-79
2021/01/28 03:38:11;;;;;;;3.10;2.80;;;5.70;99.90;;;;;;10317198;28;20200;-79
2021/01/28 03:43:14;;;;;;;3.33;3.13;;;5.80;99.90;;;;;;10333919;28;20298;-79
2021/01/28 03:48:16;;;;;;;3.47;3.27;;;5.80;99.90;;;;;;10333920;28;20652;-79
2021/01/28 03:53:50;;;;;;;3.70;3.40;;;5.80;99.90;;;;;;10322976;28;20227;-79
2021/01/28 03:58:57;;;;;;;3.50;3.20;;;5.80;99.90;;;;;;10335071;28;20207;-79
2021/01/28 04:04:16;;;;;;;3.30;3.00;;;5.90;99.90;;;;;;10316695;28;20610;-79
2021/01/28 04:09:37;;;;;;;2.70;2.50;;;5.90;99.90;;;;;;10333838;28;20282;-79
2021/01/28 04:14:53;;;;;;;3.93;3.63;;;5.90;99.90;;;;;;10332459;28;20206;-79
2021/01/28 04:19:57;;;;;;;3.53;3.33;;;5.90;99.90;;;;;;10334244;28;20191;-79
2021/01/28 04:24:59;;;;;;;4.20;3.90;;;5.90;99.90;;;;;;10333601;28;20233;-79
2021/01/28 04:30:04;;;;;;;4.20;3.90;;;5.90;99.90;;;;;;10333065;28;20636;-79
2021/01/28 04:35:17;;;;;;;4.50;3.93;;;5.90;99.90;;;;;;10316463;28;20265;-79
2021/01/28 04:40:29;;;;;;;4.70;4.30;;;5.90;99.90;;;;;;10315976;28;20207;-79
2021/01/28 04:45:32;;;;;;;4.80;4.50;;;5.90;99.90;;;;;;10331814;28;20266;-79
2021/01/28 04:50:38;;;;;;;4.33;4.03;;;5.90;99.90;;;;;;10317519;28;20207;-79
2021/01/28 04:55:55;;;;;;;4.30;4.00;;;6.00;99.90;;;;;;10331415;28;20686;-79
2021/01/28 05:00:58;;;;;;;4.30;3.97;;;6.00;99.90;;;;;;10323674;28;20626;-79
2021/01/28 05:06:28;;;;;;;4.50;4.10;;;6.00;99.90;;;;;;10287318;28;20693;-79
2021/01/28 05:11:53;;;;;;;4.40;4.03;;;6.10;99.90;;;;;;10331407;28;20217;-79
2021/01/28 05:17:21;;;;;;;4.10;3.80;;;6.10;99.90;;;;;;10312942;28;20195;-79
2021/01/28 05:22:44;;;;;;;4.70;4.30;;;6.10;99.90;;;;;;10328304;28;20322;-80
2021/01/28 05:27:58;;;;;;;4.03;3.63;;;6.00;99.90;;;;;;10330313;28;20361;-80
2021/01/28 05:33:35;;;;;;;5.13;4.70;;;6.00;99.90;;;;;;10328699;28;20668;-79
2021/01/28 05:38:56;;;;;;;3.50;3.30;;;6.10;99.90;;;;;;10323488;28;20656;-79
2021/01/28 05:44:15;;;;;;;4.50;3.80;;;6.10;99.90;;;;;;10325471;28;20273;-79
2021/01/28 05:49:21;;;;;;;4.23;3.93;;;6.10;99.90;;;;;;10313781;28;20203;-79
2021/01/28 05:54:27;;;;;;;4.80;4.10;;;6.10;99.90;;;;;;10312158;28;20231;-77
2021/01/28 05:59:54;;;;;;;5.00;4.50;;;6.00;99.90;;;;;;10314923;28;20706;-77
2021/01/28 06:05:11;;;;;;;4.70;4.40;;;6.00;99.90;;;;;;10328762;28;20226;-77
2021/01/28 06:10:39;;;;;;;5.23;4.73;;;6.00;99.90;;;;;;10311874;28;20202;-77
2021/01/28 06:16:24;;;;;;;5.00;4.53;;;5.90;99.90;;;;;;10315642;28;20218;-77
2021/01/28 06:21:59;;;;;;;4.77;4.37;;;5.80;99.90;;;;;;10308711;28;20233;-77
2021/01/28 06:27:41;;;;;;;4.87;4.47;;;5.80;99.90;;;;;;10321475;28;20199;-76
2021/01/28 06:33:24;;;;;;;5.63;5.13;;;5.70;99.90;;;;;;10272468;28;20227;-76
2021/01/28 06:39:14;;;;;;;4.80;4.40;;;5.60;99.90;;;;;;10325250;28;20200;-76
2021/01/28 06:44:50;;;;;;;6.07;5.67;;;5.60;99.90;;;;;;10250345;28;20247;-77
2021/01/28 06:50:16;;;;;;;7.33;6.73;;;5.70;99.90;;;;;;10324523;28;20192;-77
2021/01/28 06:55:32;;;;;;;6.77;6.27;;;5.70;99.90;;;;;;10330958;28;20215;-77
2021/01/28 07:00:59;;;;;;;6.60;6.20;;;5.70;99.90;;;;;;10342032;28;20221;-77
2021/01/28 07:06:08;;;;;;;6.97;6.57;;;5.70;99.90;;;;;;10324298;28;20238;-77
2021/01/28 07:11:21;;;;;;;7.37;6.70;;;5.80;99.90;;;;;;10342535;28;20278;-77
2021/01/28 07:16:53;;;;;;;8.50;7.90;;;5.80;99.90;;;;;;10340875;28;20210;-77
2021/01/28 07:21:56;;;;;;;7.77;7.27;;;5.80;99.90;;;;;;10327902;28;20713;-76
2021/01/28 07:27:01;;;;;;;7.50;7.10;;;5.80;99.90;;;;;;10319819;28;20195;-77
2021/01/28 07:32:04;;;;;;;8.17;7.77;;;5.80;99.90;;;;;;10334776;28;20203;-76
2021/01/28 07:37:31;;;;;;;7.10;6.70;;;5.90;99.90;;;;;;10333406;28;20203;-77
2021/01/28 07:43:04;;;;;;;7.30;6.80;;;5.90;99.90;;;;;;10334941;28;20219;-77
2021/01/28 07:48:25;;;;;;;8.23;7.63;;;5.80;99.90;;;;;;10325431;28;20207;-76
2021/01/28 07:53:50;;;;;;;7.80;7.30;;;5.80;99.90;;;;;;10316433;28;20230;-76
2021/01/28 07:58:52;;;;;;;7.00;6.43;;;5.80;99.90;;;;;;10334127;28;20652;-76
2021/01/28 08:04:03;;;;;;;5.93;5.43;;;5.80;99.90;;;;;;10332330;28;20686;-77
2021/01/28 08:09:07;;;;;;;7.73;7.33;;;5.80;99.90;;;;;;10333357;28;20253;-76
2021/01/28 08:14:12;;;;;;;8.80;8.30;;;5.80;99.90;;;;;;10332417;28;20211;-77
2021/01/28 08:19:20;;;;;;;9.10;8.60;;;5.90;99.90;;;;;;10330586;28;20298;-76
2021/01/28 08:24:35;;;;;;;8.30;7.87;;;5.90;99.90;;;;;;10347721;28;20703;-77
2021/01/28 08:29:37;;;;;;;8.17;7.77;;;6.00;99.90;;;;;;10344980;28;20286;-77
2021/01/28 08:34:39;;;;;;;7.77;7.37;;;6.00;99.90;;;;;;10352074;28;20348;-77
2021/01/28 08:39:41;;;;;;;8.00;7.60;;;6.10;99.90;;;;;;10345660;28;20206;-77
2021/01/28 08:44:47;;;;;;;6.77;6.47;;;6.00;99.90;;;;;;10331718;28;20214;-77
2021/01/28 08:50:00;;;;;;;7.80;7.40;;;6.10;99.90;;;;;;10323076;28;20208;-77
2021/01/28 08:55:10;;;;;;;6.97;6.57;;;6.10;99.90;;;;;;10311384;28;20295;-77
2021/01/28 09:00:17;;;;;;;7.70;7.30;;;6.20;99.90;;;;;;10325912;28;20710;-77
2021/01/28 09:05:25;;;;;;;7.20;6.70;;;6.20;99.90;;;;;;10329406;28;20658;-77
2021/01/28 09:10:32;;;;;;;5.03;4.83;;;6.30;99.90;;;;;;10322862;28;20207;-77
2021/01/28 09:15:35;;;;;;;7.30;7.00;;;6.30;99.90;;;;;;10330349;28;20215;-77
2021/01/28 09:20:37;;;;;;;6.73;6.43;;;6.30;99.90;;;;;;10329518;28;20223;-77
2021/01/28 09:25:40;;;;;;;4.50;4.30;;;6.30;99.90;;;;;;10328513;28;20215;-77
2021/01/28 09:30:45;;;;;;;7.70;7.30;;;6.40;99.90;;;;;;10314566;28;20628;-77
2021/01/28 09:36:04;;;;;;;5.70;5.50;;;6.50;99.90;;;;;;10318904;28;20238;-77
2021/01/28 09:41:12;;;;;;;8.50;8.20;;;6.40;99.90;;;;;;10328491;28;20197;-77
2021/01/28 09:46:25;;;;;;;9.00;8.60;;;6.40;99.90;;;;;;10316075;28;20326;-77
2021/01/28 09:51:30;;;;;;;8.00;7.60;;;6.50;99.90;;;;;;10326091;28;20231;-77
2021/01/28 09:56:32;;;;;;;8.33;7.93;;;6.40;99.90;;;;;;10336608;28;20200;-77
2021/01/28 10:01:35;;;;;;;8.63;8.23;;;6.40;99.90;;;;;;10319921;28;20229;-76
2021/01/28 10:06:36;;;;;;;6.73;6.53;;;6.40;99.90;;;;;;10328334;28;20202;-77
2021/01/28 10:11:39;;;;;;;8.37;7.97;;;6.40;99.90;;;;;;10350054;28;20669;-77
2021/01/28 10:16:41;;;;;;;7.60;7.20;;;6.40;99.90;;;;;;10362330;28;20549;-77
2021/01/28 10:21:43;;;;;;;8.20;7.83;;;6.50;99.90;;;;;;10309217;28;20573;-77
2021/01/28 10:26:45;;;;;;;7.03;6.73;;;6.50;99.90;;;;;;10307304;28;20195;-77
2021/01/28 10:31:47;;;;;;;8.80;8.40;;;6.60;99.90;;;;;;10325734;28;20195;-77
2021/01/28 10:36:50;;;;;;;7.07;6.77;;;6.60;99.90;;;;;;10331741;28;20206;-77
2021/01/28 10:41:53;;;;;;;5.90;5.60;;;6.70;99.90;;;;;;10344713;28;20215;-77
2021/01/28 10:46:56;;;;;;;8.07;7.77;;;6.70;99.90;;;;;;10348865;28;20191;-77
2021/01/28 10:51:57;;;;;;;9.00;8.60;;;6.80;99.90;;;;;;10358100;28;20241;-77
2021/01/28 10:56:59;;;;;;;8.67;8.37;;;6.90;99.90;;;;;;10359028;28;20209;-77
2021/01/28 11:02:02;;;;;;;9.53;9.13;;;7.00;99.90;;;;;;10352327;28;20222;-77
2021/01/28 11:07:03;;;;;;;6.20;6.00;;;7.20;99.90;;;;;;10335245;28;20597;-77
2021/01/28 11:12:07;;;;;;;9.00;8.60;;;7.30;99.90;;;;;;10359031;28;20282;-77
2021/01/28 11:17:09;;;;;;;8.77;8.37;;;7.40;99.90;;;;;;10351945;28;20282;-77
2021/01/28 11:22:11;;;;;;;8.37;8.00;;;7.40;99.90;;;;;;10349750;23;20255;-83
2021/01/28 11:27:12;;;;;;;8.20;7.80;;;7.50;99.90;;;;;;10365213;28;20195;-82
2021/01/28 11:32:15;;;;;;;8.37;8.07;;;7.40;99.90;;;;;;10346254;28;20187;-82
2021/01/28 11:37:17;;;;;;;9.10;8.70;;;7.50;99.90;;;;;;10346411;28;20200;-82
2021/01/28 11:42:19;;;;;;;9.17;8.77;;;7.60;99.90;;;;;;10363271;28;20207;-84
2021/01/28 11:47:24;;;;;;;7.10;6.80;;;7.80;99.90;;;;;;10366711;28;20462;-81
2021/01/28 11:52:26;;;;;;;7.40;7.10;;;7.90;99.90;;;;;;10340003;28;20756;-82
2021/01/28 11:57:27;;;;;;;5.47;5.27;;;8.00;99.90;;;;;;10342923;28;20241;-83
2021/01/28 12:02:30;;;;;;;8.17;7.87;;;8.10;99.90;;;;;;10333823;28;20350;-83
2021/01/28 12:07:32;;;;;;;6.40;6.20;;;8.10;99.90;;;;;;10357807;28;20203;-81
2021/01/28 12:12:34;;;;;;;7.10;6.80;;;8.20;99.90;;;;;;10333711;28;20664;-82
2021/01/28 12:17:37;;;;;;;8.53;8.23;;;8.30;99.90;;;;;;10313202;28;20210;-83
2021/01/28 12:22:40;;;;;;;5.03;4.83;;;8.50;99.90;;;;;;10333943;28;20227;-83
2021/01/28 12:27:42;;;;;;;6.27;5.97;;;8.60;99.90;;;;;;10307192;28;20261;-82
2021/01/28 12:32:47;;;;;;;6.20;6.00;;;8.60;99.90;;;;;;10355420;28;20298;-82
2021/01/28 12:37:49;;;;;;;7.63;7.33;;;8.70;99.90;;;;;;10359458;28;20195;-82
2021/01/28 12:42:51;;;;;;;7.37;7.07;;;8.90;99.90;;;;;;10332079;28;20243;-82
2021/01/28 12:47:53;;;;;;;7.27;6.97;;;9.00;99.90;;;;;;10347726;28;20211;-82
2021/01/28 12:52:55;;;;;;;6.50;6.20;;;9.00;99.90;;;;;;10355112;28;20219;-82
2021/01/28 12:57:57;;;;;;;7.03;6.73;;;8.90;99.90;;;;;;10367636;28;20199;-81
2021/01/28 13:02:59;;;;;;;6.73;6.53;;;8.90;99.90;;;;;;10364983;28;20234;-82
2021/01/28 13:08:01;;;;;;;6.60;6.30;;;9.00;99.90;;;;;;10351826;28;20227;-82
2021/01/28 13:13:03;;;;;;;6.00;5.80;;;9.00;99.90;;;;;;10350242;28;20284;-81
2021/01/28 13:18:07;;;;;;;7.30;7.03;;;9.00;99.90;;;;;;10346980;28;20207;-79
2021/01/28 13:23:10;;;;;;;5.77;5.47;;;9.10;99.90;;;;;;10338531;28;20222;-80
2021/01/28 13:28:12;;;;;;;5.13;4.93;;;9.30;99.90;;;;;;10335881;28;20221;-80
2021/01/28 13:33:15;;;;;;;6.60;6.30;;;9.40;99.90;;;;;;10330883;28;20219;-80
2021/01/28 13:38:17;;;;;;;6.73;6.33;;;9.30;99.90;;;;;;10328696;28;20924;-81
2021/01/28 13:43:18;;;;;;;7.57;7.27;;;9.40;99.90;;;;;;10312612;28;20230;-80
2021/01/28 13:48:22;;;;;;;5.73;5.40;;;9.40;99.90;;;;;;10353176;28;20257;-79
2021/01/28 13:53:24;;;;;;;6.10;5.47;;;9.50;99.90;;;;;;10330125;28;20430;-80
2021/01/28 13:58:25;;;;;;;3.90;3.80;;;9.50;99.90;;;;;;10313498;28;20203;-81
2021/01/28 14:03:28;;;;;;;6.50;6.20;;;9.70;99.90;;;;;;10314816;28;20769;-82
2021/01/28 14:08:31;;;;;;;4.17;3.97;;;9.90;99.90;;;;;;10309753;28;20269;-82
2021/01/28 14:13:33;;;;;;;6.10;5.90;;;10.00;99.90;;;;;;10336213;28;20215;-80
2021/01/28 14:18:38;;;;;;;7.27;7.07;;;10.10;99.90;;;;;;10313557;28;20192;-81
2021/01/28 14:23:40;;;;;;;5.37;5.23;;;10.20;99.90;;;;;;10314322;28;20313;-81
2021/01/28 14:28:41;;;;;;;7.23;6.93;;;10.10;99.90;;;;;;10339950;28;20604;-80
2021/01/28 14:33:44;;;;;;;5.63;5.43;;;10.20;99.90;;;;;;10336401;28;20597;-82
2021/01/28 14:38:46;;;;;;;6.93;6.63;;;10.10;99.90;;;;;;10356719;28;20283;-81
2021/01/28 14:43:47;;;;;;;5.23;5.10;;;10.10;99.90;;;;;;10355247;28;20703;-81
2021/01/28 14:48:50;;;;;;;5.50;5.20;;;10.20;99.90;;;;;;10348286;28;20214;-81
2021/01/28 14:53:52;;;;;;;5.83;5.63;;;10.20;99.90;;;;;;10344821;28;20717;-80
2021/01/28 14:58:54;;;;;;;5.87;5.67;;;10.20;99.90;;;;;;10337113;28;20210;-82
2021/01/28 15:03:56;;;;;;;6.43;6.23;;;10.20;99.90;;;;;;10334743;28;20231;-83
2021/01/28 15:08:58;;;;;;;3.73;3.63;;;10.20;99.90;;;;;;10331218;28;20480;-80
2021/01/28 15:14:00;;;;;;;6.60;6.40;;;10.30;99.90;;;;;;10331989;28;20242;-80
2021/01/28 15:19:03;;;;;;;3.80;3.70;;;10.30;99.90;;;;;;10338616;28;20258;-81
2021/01/28 15:24:06;;;;;;;6.33;6.13;;;10.30;99.90;;;;;;10335650;28;20255;-80
2021/01/28 15:29:08;;;;;;;4.40;4.30;;;10.30;99.90;;;;;;10336762;28;20394;-80
2021/01/28 15:34:11;;;;;;;5.50;5.30;;;10.30;99.90;;;;;;10345605;28;20219;-80
2021/01/28 15:39:16;;;;;;;5.50;5.33;;;10.30;99.90;;;;;;10350373;28;20209;-80
2021/01/28 15:44:17;;;;;;;5.30;5.10;;;10.40;99.90;;;;;;10335827;28;20595;-80
2021/01/28 15:49:20;;;;;;;4.80;4.50;;;10.40;99.90;;;;;;10337481;28;20202;-80
2021/01/28 15:54:22;;;;;;;5.70;5.50;;;10.40;99.90;;;;;;10329253;28;20242;-79
2021/01/28 15:59:24;;;;;;;6.87;6.53;;;10.50;99.90;;;;;;10351857;28;20580;-81
2021/01/28 16:04:26;;;;;;;3.60;3.50;;;10.50;99.90;;;;;;10348384;28;20330;-80
2021/01/28 16:09:28;;;;;;;5.07;4.87;;;10.50;99.90;;;;;;10352013;28;20226;-81
2021/01/28 16:14:30;;;;;;;5.67;5.30;;;10.40;99.90;;;;;;10345928;28;20553;-80
2021/01/28 16:19:32;;;;;;;3.13;3.03;;;10.50;99.90;;;;;;10350303;28;20203;-80
2021/01/28 16:24:36;;;;;;;4.17;4.00;;;10.40;99.90;;;;;;10344878;28;20215;-80
2021/01/28 16:29:38;;;;;;;3.80;3.70;;;10.40;99.90;;;;;;10343554;28;20234;-81
2021/01/28 16:34:42;;;;;;;4.80;4.60;;;10.40;99.90;;;;;;10349043;28;20277;-82
2021/01/28 16:39:44;;;;;;;4.00;3.90;;;10.40;99.90;;;;;;10346854;28;20250;-81
2021/01/28 16:44:52;;;;;;;3.70;3.60;;;10.40;99.90;;;;;;10356845;28;20607;-81
2021/01/28 16:49:54;;;;;;;4.20;4.10;;;10.30;99.90;;;;;;10336148;28;20199;-82
2021/01/28 16:54:56;;;;;;;4.53;4.27;;;10.30;99.90;;;;;;10337112;28;20313;-82
2021/01/28 16:59:57;;;;;;;2.87;2.77;;;10.30;99.90;;;;;;10343982;28;20685;-82
2021/01/28 17:05:00;;;;;;;4.87;4.67;;;10.30;99.90;;;;;;10348472;28;20223;-81
2021/01/28 17:10:04;;;;;;;3.83;3.73;;;10.30;99.90;;;;;;10340078;28;20180;-82
2021/01/28 17:15:06;;;;;;;4.90;4.70;;;10.30;99.90;;;;;;10337054;28;20822;-81
2021/01/28 17:20:11;;;;;;;4.57;4.40;;;10.30;99.90;;;;;;10322603;28;20206;-81
2021/01/28 17:25:14;;;;;;;3.13;3.03;;;10.30;99.90;;;;;;10382325;23;20222;-82
2021/01/28 17:30:19;;;;;;;2.47;2.37;;;10.30;99.90;;;;;;10373288;28;20194;-81
2021/01/28 17:35:25;;;;;;;5.17;4.77;;;10.40;99.90;;;;;;10347674;28;20278;-82
2021/01/28 17:40:27;;;;;;;3.60;3.50;;;10.40;99.90;;;;;;10334562;28;20203;-82
2021/01/28 17:45:30;;;;;;;2.60;2.50;;;10.50;99.90;;;;;;10346563;28;20310;-81
2021/01/28 17:50:33;;;;;;;3.60;3.50;;;10.50;99.90;;;;;;10316613;28;20659;-83
2021/01/28 17:55:35;;;;;;;4.07;3.80;;;10.60;99.90;;;;;;10306393;28;20223;-82
2021/01/28 18:00:37;;;;;;;4.27;4.07;;;10.60;99.90;;;;;;10335374;28;20207;-82
2021/01/28 18:05:40;;;;;;;3.53;3.43;;;10.60;99.90;;;;;;10361964;28;20226;-81
2021/01/28 18:10:41;;;;;;;4.93;4.63;;;10.60;99.90;;;;;;10340549;28;20581;-83
2021/01/28 18:15:43;;;;;;;2.77;2.67;;;10.50;99.90;;;;;;10286450;28;20537;-82
2021/01/28 18:20:46;;;;;;;2.70;2.60;;;10.50;99.90;;;;;;10321156;28;20242;-82
2021/01/28 18:25:47;;;;;;;1.93;1.83;;;10.50;99.90;;;;;;10334992;28;20235;-82
2021/01/28 18:30:49;;;;;;;2.53;2.43;;;10.50;99.90;;;;;;10348408;28;20206;-82
2021/01/28 18:35:54;;;;;;;2.60;2.50;;;10.60;99.90;;;;;;10310848;28;21578;-81
2021/01/28 18:40:55;;;;;;;2.27;2.17;;;10.60;99.90;;;;;;10290594;28;20204;-82
2021/01/28 18:45:57;;;;;;;2.20;2.10;;;10.60;99.90;;;;;;10310504;28;20687;-82
2021/01/28 18:51:01;;;;;;;3.17;2.77;;;10.60;99.90;;;;;;10295335;28;20199;-82
2021/01/28 18:56:03;;;;;;;2.23;2.13;;;10.60;99.90;;;;;;10309511;28;20666;-82
2021/01/28 19:01:05;;;;;;;2.57;2.47;;;10.60;99.90;;;;;;10309819;28;20557;-82
2021/01/28 19:06:08;;;;;;;2.23;2.13;;;10.50;99.90;;;;;;10305675;28;20227;-82
2021/01/28 19:11:10;;;;;;;2.43;2.33;;;10.60;99.90;;;;;;10312490;28;20201;-82
2021/01/28 19:16:12;;;;;;;1.50;1.40;;;10.60;99.90;;;;;;10313882;28;20303;-82
2021/01/28 19:21:15;;;;;;;1.87;1.77;;;10.60;99.90;;;;;;10298855;28;20206;-82
2021/01/28 19:26:16;;;;;;;2.03;1.93;;;10.60;99.90;;;;;;10327305;28;20751;-82
2021/01/28 19:31:18;;;;;;;2.40;2.30;;;10.70;99.90;;;;;;10317128;28;20548;-82
2021/01/28 19:36:21;;;;;;;1.90;1.80;;;10.60;99.90;;;;;;10311213;28;20594;-82
2021/01/28 19:41:22;;;;;;;1.90;1.80;;;10.60;99.90;;;;;;10314886;28;20203;-82
2021/01/28 19:46:24;;;;;;;2.90;1.80;;;10.60;99.90;;;;;;10318220;28;20275;-82
2021/01/28 19:51:27;;;;;;;1.47;1.47;;;10.60;99.90;;;;;;10333317;28;20210;-82
2021/01/28 19:56:28;;;;;;;1.90;1.80;;;10.60;99.90;;;;;;10299509;28;20220;-83
2021/01/28 20:01:30;;;;;;;2.13;2.03;;;10.60;99.90;;;;;;10296942;28;20670;-82
2021/01/28 20:06:32;;;;;;;1.90;1.80;;;10.60;99.90;;;;;;10276406;28;20256;-82
2021/01/28 20:11:34;;;;;;;2.60;1.80;;;10.60;99.90;;;;;;10298979;28;20727;-82
2021/01/28 20:16:37;;;;;;;6.90;5.50;;;10.60;99.90;;;;;;10329314;28;20215;-82
2021/01/28 20:21:40;;;;;;;1.73;1.63;;;10.70;99.90;;;;;;10338662;28;20202;-83
2021/01/28 20:26:41;;;;;;;1.50;1.50;;;10.70;99.90;;;;;;10359210;28;20230;-82
2021/01/28 20:31:46;;;;;;;1.60;1.50;;;10.80;99.90;;;;;;10323608;28;20276;-83
2021/01/28 20:36:51;;;;;;;1.47;1.37;;;10.70;99.90;;;;;;10305626;28;20227;-82
2021/01/28 20:41:53;;;;;;;1.50;1.47;;;10.70;99.90;;;;;;10328740;28;20238;-84
2021/01/28 20:46:54;;;;;;;3.40;3.10;;;10.60;99.90;;;;;;10323367;28;20219;-84
2021/01/28 20:51:57;;;;;;;1.50;1.40;;;10.60;99.90;;;;;;10310908;28;20668;-83
2021/01/28 20:56:59;;;;;;;2.43;1.63;;;10.50;99.90;;;;;;10336765;28;20725;-82
2021/01/28 21:02:00;;;;;;;1.50;1.40;;;10.50;99.90;;;;;;10323584;28;20241;-82
2021/01/28 21:07:03;;;;;;;1.80;1.70;;;10.50;99.90;;;;;;10325548;28;20272;-83
2021/01/28 21:12:06;;;;;;;1.40;1.40;;;10.50;99.90;;;;;;10327344;28;20282;-82
2021/01/28 21:17:08;;;;;;;2.03;1.93;;;10.50;99.90;;;;;;10321690;28;20241;-82
2021/01/28 21:22:10;;;;;;;4.20;3.80;;;10.60;99.90;;;;;;10302027;28;20210;-82
2021/01/28 21:27:12;;;;;;;1.70;1.60;;;10.60;99.90;;;;;;10298260;28;20226;-82
2021/01/28 21:32:14;;;;;;;2.17;2.07;;;10.50;99.90;;;;;;10296391;28;20199;-83
2021/01/28 21:37:16;;;;;;;1.70;1.60;;;10.50;99.90;;;;;;10310502;28;20237;-82
2021/01/28 21:42:18;;;;;;;1.50;1.40;;;10.40;99.90;;;;;;10307913;28;20206;-83
2021/01/28 21:47:20;;;;;;;1.60;1.50;;;10.40;99.90;;;;;;10322803;28;20233;-83
2021/01/28 21:52:22;;;;;;;1.70;1.57;;;10.40;99.90;;;;;;10292985;28;20196;-82
2021/01/28 21:57:24;;;;;;;2.33;2.13;;;10.40;99.90;;;;;;10309863;28;20668;-82
2021/01/28 22:02:26;;;;;;;1.93;1.83;;;10.30;99.90;;;;;;10303843;28;20230;-82
2021/01/28 22:07:28;;;;;;;4.87;1.93;;;10.20;99.90;;;;;;10314175;28;20223;-83
2021/01/28 22:12:30;;;;;;;1.67;1.57;;;10.30;99.90;;;;;;10288531;28;20203;-82
2021/01/28 22:17:32;;;;;;;1.90;1.67;;;10.20;99.90;;;;;;10299387;28;20234;-82
2021/01/28 22:22:34;;;;;;;1.90;1.80;;;10.20;99.90;;;;;;10316292;28;20684;-82
2021/01/28 22:27:36;;;;;;;1.60;1.50;;;10.20;99.90;;;;;;10293546;28;20262;-82
2021/01/28 22:32:38;;;;;;;1.40;1.30;;;10.10;99.90;;;;;;10287244;28;20268;-82
2021/01/28 22:37:41;;;;;;;1.73;1.43;;;10.10;99.90;;;;;;10264765;28;20212;-82
2021/01/28 22:42:43;;;;;;;1.80;1.70;;;10.10;99.90;;;;;;10286191;28;20223;-83
2021/01/28 22:47:46;;;;;;;1.30;1.30;;;10.30;99.90;;;;;;10348508;28;20204;-82
2021/01/28 22:52:49;;;;;;;1.50;1.40;;;10.30;99.90;;;;;;10274752;28;20715;-82
2021/01/28 22:57:51;;;;;;;1.37;1.37;;;10.30;99.90;;;;;;10290497;28;20520;-82
2021/01/28 23:02:54;;;;;;;1.50;1.40;;;10.30;99.90;;;;;;10288345;28;20588;-83
2021/01/28 23:07:57;;;;;;;1.30;1.30;;;10.20;99.90;;;;;;10293560;28;20715;-82
2021/01/28 23:12:59;;;;;;;2.40;1.50;;;10.20;99.90;;;;;;10293127;28;20243;-82
2021/01/28 23:18:01;;;;;;;1.57;1.53;;;10.10;99.90;;;;;;10333575;28;20218;-81
2021/01/28 23:23:06;;;;;;;1.53;1.40;;;10.10;99.90;;;;;;10369407;23;20257;-83
2021/01/28 23:28:09;;;;;;;1.67;1.57;;;10.20;99.90;;;;;;10424744;28;20201;-83
2021/01/28 23:33:11;;;;;;;1.50;1.40;;;10.30;99.90;;;;;;10409867;28;20272;-83
2021/01/28 23:38:14;;;;;;;1.50;1.50;;;10.30;99.90;;;;;;10409452;28;20493;-83
2021/01/28 23:43:21;;;;;;;1.83;1.73;;;10.40;99.90;;;;;;10411020;28;20214;-82
2021/01/28 23:48:26;;;;;;;1.70;1.60;;;10.40;99.90;;;;;;10426518;28;20650;-82
2021/01/28 23:53:32;;;;;;;1.40;1.40;;;10.40;99.90;;;;;;10412170;28;20242;-83
2021/01/28 23:58:34;;;;;;;1.50;1.50;;;10.40;99.90;;;;;;10424908;28;20248;-81
